sensor_id;sensor_type;location;lat;lon;timestamp;P1;durP1;ratioP1;P2;durP2;ratioP2
17214;SDS011;8723;51.502;6.918;2022-11-18T00:01:07;5.60;;;2.63;;
17214;SDS011;8723;51.502;6.918;2022-11-18T00:03:34;3.20;;;1.95;;
17214;SDS011;8723;51.502;6.918;2022-11-18T00:06:01;3.88;;;2.00;;
17214;SDS011;8723;51.502;6.918;2022-11-18T00:08:29;4.07;;;2.23;;
17214;SDS011;8723;51.502;6.918;2022-11-18T00:10:56;4.20;;;2.20;;
17214;SDS011;8723;51.502;6.918;2022-11-18T00:13:23;4.85;;;3.10;;
17214;SDS011;8723;51.502;6.918;2022-11-18T00:16:23;4.43;;;2.65;;
17214;SDS011;8723;51.502;6.918;2022-11-18T00:18:50;6.32;;;3.28;;
17214;SDS011;8723;51.502;6.918;2022-11-18T00:21:18;5.75;;;4.18;;
17214;SDS011;8723;51.502;6.918;2022-11-18T00:23:47;6.57;;;5.80;;
17214;SDS011;8723;51.502;6.918;2022-11-18T00:26:14;6.68;;;5.03;;
17214;SDS011;8723;51.502;6.918;2022-11-18T00:28:41;9.75;;;7.53;;
17214;SDS011;8723;51.502;6.918;2022-11-18T00:31:08;7.35;;;5.75;;
17214;SDS011;8723;51.502;6.918;2022-11-18T00:33:38;5.93;;;4.32;;
17214;SDS011;8723;51.502;6.918;2022-11-18T00:36:06;4.20;;;2.90;;
17214;SDS011;8723;51.502;6.918;2022-11-18T00:38:34;5.50;;;2.77;;
17214;SDS011;8723;51.502;6.918;2022-11-18T00:41:02;4.53;;;2.50;;
17214;SDS011;8723;51.502;6.918;2022-11-18T00:43:29;5.35;;;2.30;;
17214;SDS011;8723;51.502;6.918;2022-11-18T00:45:55;4.43;;;2.42;;
17214;SDS011;8723;51.502;6.918;2022-11-18T00:48:23;3.60;;;2.40;;
17214;SDS011;8723;51.502;6.918;2022-11-18T00:50:52;5.38;;;2.28;;
17214;SDS011;8723;51.502;6.918;2022-11-18T00:53:20;4.13;;;2.20;;
17214;SDS011;8723;51.502;6.918;2022-11-18T00:55:47;4.78;;;2.28;;
17214;SDS011;8723;51.502;6.918;2022-11-18T00:58:14;3.78;;;2.03;;
17214;SDS011;8723;51.502;6.918;2022-11-18T01:00:42;4.20;;;1.98;;
17214;SDS011;8723;51.502;6.918;2022-11-18T01:03:10;4.68;;;2.22;;
17214;SDS011;8723;51.502;6.918;2022-11-18T01:05:37;3.00;;;1.90;;
17214;SDS011;8723;51.502;6.918;2022-11-18T01:08:07;3.47;;;2.00;;
17214;SDS011;8723;51.502;6.918;2022-11-18T01:10:34;3.87;;;2.20;;
17214;SDS011;8723;51.502;6.918;2022-11-18T01:13:01;4.15;;;2.30;;
17214;SDS011;8723;51.502;6.918;2022-11-18T01:15:48;6.70;;;2.40;;
17214;SDS011;8723;51.502;6.918;2022-11-18T01:18:16;3.60;;;1.85;;
17214;SDS011;8723;51.502;6.918;2022-11-18T01:20:44;3.33;;;2.03;;
17214;SDS011;8723;51.502;6.918;2022-11-18T01:23:13;3.30;;;1.77;;
17214;SDS011;8723;51.502;6.918;2022-11-18T01:25:41;3.88;;;2.00;;
17214;SDS011;8723;51.502;6.918;2022-11-18T01:28:08;3.20;;;1.98;;
17214;SDS011;8723;51.502;6.918;2022-11-18T01:30:36;5.90;;;2.50;;
17214;SDS011;8723;51.502;6.918;2022-11-18T01:33:04;3.33;;;2.20;;
17214;SDS011;8723;51.502;6.918;2022-11-18T01:35:33;2.75;;;1.92;;
17214;SDS011;8723;51.502;6.918;2022-11-18T01:38:00;4.20;;;2.17;;
17214;SDS011;8723;51.502;6.918;2022-11-18T01:40:29;4.70;;;2.20;;
17214;SDS011;8723;51.502;6.918;2022-11-18T01:42:56;4.70;;;2.33;;
17214;SDS011;8723;51.502;6.918;2022-11-18T01:45:25;4.80;;;2.50;;
17214;SDS011;8723;51.502;6.918;2022-11-18T01:47:55;3.60;;;2.22;;
17214;SDS011;8723;51.502;6.918;2022-11-18T01:50:23;3.75;;;2.00;;
17214;SDS011;8723;51.502;6.918;2022-11-18T01:52:51;5.73;;;2.63;;
17214;SDS011;8723;51.502;6.918;2022-11-18T01:55:20;4.87;;;2.33;;
17214;SDS011;8723;51.502;6.918;2022-11-18T01:57:50;4.40;;;2.30;;
17214;SDS011;8723;51.502;6.918;2022-11-18T02:00:19;4.85;;;2.40;;
17214;SDS011;8723;51.502;6.918;2022-11-18T02:02:46;2.88;;;2.00;;
17214;SDS011;8723;51.502;6.918;2022-11-18T02:05:14;5.60;;;2.50;;
17214;SDS011;8723;51.502;6.918;2022-11-18T02:07:42;3.78;;;2.30;;
17214;SDS011;8723;51.502;6.918;2022-11-18T02:10:15;2.85;;;2.10;;
17214;SDS011;8723;51.502;6.918;2022-11-18T02:12:42;4.22;;;2.30;;
17214;SDS011;8723;51.502;6.918;2022-11-18T02:15:11;4.33;;;2.20;;
17214;SDS011;8723;51.502;6.918;2022-11-18T02:17:42;4.18;;;2.20;;
17214;SDS011;8723;51.502;6.918;2022-11-18T02:20:22;5.97;;;2.60;;
17214;SDS011;8723;51.502;6.918;2022-11-18T02:25:43;5.45;;;2.67;;
17214;SDS011;8723;51.502;6.918;2022-11-18T02:28:21;3.08;;;2.10;;
17214;SDS011;8723;51.502;6.918;2022-11-18T02:30:52;5.28;;;2.10;;
17214;SDS011;8723;51.502;6.918;2022-11-18T02:33:24;3.47;;;2.45;;
17214;SDS011;8723;51.502;6.918;2022-11-18T02:35:53;5.82;;;2.40;;
17214;SDS011;8723;51.502;6.918;2022-11-18T02:38:23;5.97;;;2.50;;
17214;SDS011;8723;51.502;6.918;2022-11-18T02:40:53;3.92;;;2.22;;
17214;SDS011;8723;51.502;6.918;2022-11-18T02:43:23;4.80;;;2.40;;
17214;SDS011;8723;51.502;6.918;2022-11-18T02:45:54;4.18;;;2.55;;
17214;SDS011;8723;51.502;6.918;2022-11-18T02:48:22;7.15;;;2.83;;
17214;SDS011;8723;51.502;6.918;2022-11-18T02:50:50;5.45;;;2.55;;
17214;SDS011;8723;51.502;6.918;2022-11-18T02:53:19;5.53;;;2.67;;
17214;SDS011;8723;51.502;6.918;2022-11-18T02:55:46;4.80;;;2.40;;
17214;SDS011;8723;51.502;6.918;2022-11-18T02:58:14;7.32;;;2.55;;
17214;SDS011;8723;51.502;6.918;2022-11-18T03:00:43;3.88;;;2.53;;
17214;SDS011;8723;51.502;6.918;2022-11-18T03:03:22;4.65;;;2.50;;
17214;SDS011;8723;51.502;6.918;2022-11-18T03:05:51;4.85;;;2.60;;
17214;SDS011;8723;51.502;6.918;2022-11-18T03:08:20;4.60;;;2.28;;
17214;SDS011;8723;51.502;6.918;2022-11-18T03:10:50;5.13;;;2.60;;
17214;SDS011;8723;51.502;6.918;2022-11-18T03:13:19;4.38;;;2.40;;
17214;SDS011;8723;51.502;6.918;2022-11-18T03:15:49;3.40;;;2.38;;
17214;SDS011;8723;51.502;6.918;2022-11-18T03:18:20;6.60;;;2.63;;
17214;SDS011;8723;51.502;6.918;2022-11-18T03:20:54;4.93;;;2.70;;
17214;SDS011;8723;51.502;6.918;2022-11-18T03:23:24;6.90;;;3.03;;
17214;SDS011;8723;51.502;6.918;2022-11-18T03:25:53;6.38;;;2.97;;
17214;SDS011;8723;51.502;6.918;2022-11-18T03:28:22;4.95;;;2.78;;
17214;SDS011;8723;51.502;6.918;2022-11-18T03:30:52;4.00;;;2.80;;
17214;SDS011;8723;51.502;6.918;2022-11-18T03:33:23;4.47;;;2.65;;
17214;SDS011;8723;51.502;6.918;2022-11-18T03:35:51;4.80;;;2.53;;
17214;SDS011;8723;51.502;6.918;2022-11-18T03:38:22;4.53;;;2.83;;
17214;SDS011;8723;51.502;6.918;2022-11-18T03:40:52;5.43;;;2.80;;
17214;SDS011;8723;51.502;6.918;2022-11-18T03:43:21;6.18;;;2.85;;
17214;SDS011;8723;51.502;6.918;2022-11-18T03:45:50;4.78;;;2.83;;
17214;SDS011;8723;51.502;6.918;2022-11-18T03:48:19;5.07;;;3.00;;
17214;SDS011;8723;51.502;6.918;2022-11-18T03:50:47;3.95;;;2.63;;
17214;SDS011;8723;51.502;6.918;2022-11-18T03:53:17;5.63;;;2.60;;
17214;SDS011;8723;51.502;6.918;2022-11-18T03:55:46;5.85;;;3.00;;
17214;SDS011;8723;51.502;6.918;2022-11-18T03:58:17;5.07;;;2.58;;
17214;SDS011;8723;51.502;6.918;2022-11-18T04:00:46;5.10;;;2.80;;
17214;SDS011;8723;51.502;6.918;2022-11-18T04:03:15;5.70;;;2.40;;
17214;SDS011;8723;51.502;6.918;2022-11-18T04:05:42;5.80;;;2.55;;
17214;SDS011;8723;51.502;6.918;2022-11-18T04:08:10;4.47;;;2.80;;
17214;SDS011;8723;51.502;6.918;2022-11-18T04:10:40;5.25;;;2.83;;
17214;SDS011;8723;51.502;6.918;2022-11-18T04:13:11;6.85;;;3.00;;
17214;SDS011;8723;51.502;6.918;2022-11-18T04:15:40;3.67;;;2.65;;
17214;SDS011;8723;51.502;6.918;2022-11-18T04:18:08;3.65;;;2.90;;
17214;SDS011;8723;51.502;6.918;2022-11-18T04:20:35;5.72;;;2.80;;
17214;SDS011;8723;51.502;6.918;2022-11-18T04:23:02;3.42;;;2.63;;
17214;SDS011;8723;51.502;6.918;2022-11-18T04:25:29;6.60;;;3.03;;
17214;SDS011;8723;51.502;6.918;2022-11-18T04:27:56;4.30;;;2.97;;
17214;SDS011;8723;51.502;6.918;2022-11-18T04:30:25;5.57;;;2.85;;
17214;SDS011;8723;51.502;6.918;2022-11-18T04:32:52;4.97;;;2.95;;
17214;SDS011;8723;51.502;6.918;2022-11-18T04:35:19;6.50;;;3.08;;
17214;SDS011;8723;51.502;6.918;2022-11-18T04:37:46;4.93;;;3.10;;
17214;SDS011;8723;51.502;6.918;2022-11-18T04:40:14;4.28;;;3.00;;
17214;SDS011;8723;51.502;6.918;2022-11-18T04:42:41;3.58;;;3.10;;
17214;SDS011;8723;51.502;6.918;2022-11-18T04:45:08;6.43;;;3.50;;
17214;SDS011;8723;51.502;6.918;2022-11-18T04:47:37;4.78;;;3.20;;
17214;SDS011;8723;51.502;6.918;2022-11-18T04:50:04;4.55;;;3.10;;
17214;SDS011;8723;51.502;6.918;2022-11-18T04:52:32;5.85;;;3.60;;
17214;SDS011;8723;51.502;6.918;2022-11-18T04:54:59;7.18;;;3.78;;
17214;SDS011;8723;51.502;6.918;2022-11-18T04:57:26;6.22;;;3.40;;
17214;SDS011;8723;51.502;6.918;2022-11-18T04:59:53;4.87;;;3.40;;
17214;SDS011;8723;51.502;6.918;2022-11-18T05:02:20;5.15;;;3.58;;
17214;SDS011;8723;51.502;6.918;2022-11-18T05:04:48;5.75;;;3.70;;
17214;SDS011;8723;51.502;6.918;2022-11-18T05:07:15;4.80;;;3.63;;
17214;SDS011;8723;51.502;6.918;2022-11-18T05:09:43;5.53;;;3.63;;
17214;SDS011;8723;51.502;6.918;2022-11-18T05:12:10;4.57;;;3.60;;
17214;SDS011;8723;51.502;6.918;2022-11-18T05:14:55;5.10;;;3.40;;
17214;SDS011;8723;51.502;6.918;2022-11-18T05:17:22;6.30;;;3.92;;
17214;SDS011;8723;51.502;6.918;2022-11-18T05:19:50;5.30;;;3.90;;
17214;SDS011;8723;51.502;6.918;2022-11-18T05:22:17;7.00;;;3.90;;
17214;SDS011;8723;51.502;6.918;2022-11-18T05:24:45;5.30;;;3.40;;
17214;SDS011;8723;51.502;6.918;2022-11-18T05:27:12;7.13;;;3.85;;
17214;SDS011;8723;51.502;6.918;2022-11-18T05:29:39;6.80;;;3.57;;
17214;SDS011;8723;51.502;6.918;2022-11-18T05:32:06;5.35;;;3.08;;
17214;SDS011;8723;51.502;6.918;2022-11-18T05:34:33;8.07;;;3.15;;
17214;SDS011;8723;51.502;6.918;2022-11-18T05:37:02;5.88;;;3.28;;
17214;SDS011;8723;51.502;6.918;2022-11-18T05:39:30;5.05;;;3.05;;
17214;SDS011;8723;51.502;6.918;2022-11-18T05:41:57;8.57;;;3.40;;
17214;SDS011;8723;51.502;6.918;2022-11-18T05:44:42;6.28;;;2.95;;
17214;SDS011;8723;51.502;6.918;2022-11-18T05:47:09;5.97;;;3.17;;
17214;SDS011;8723;51.502;6.918;2022-11-18T05:49:36;6.53;;;3.30;;
17214;SDS011;8723;51.502;6.918;2022-11-18T05:52:05;6.38;;;3.10;;
17214;SDS011;8723;51.502;6.918;2022-11-18T05:54:32;6.90;;;3.10;;
17214;SDS011;8723;51.502;6.918;2022-11-18T05:56:59;6.10;;;3.20;;
17214;SDS011;8723;51.502;6.918;2022-11-18T05:59:26;7.20;;;3.08;;
17214;SDS011;8723;51.502;6.918;2022-11-18T06:01:54;5.45;;;3.00;;
17214;SDS011;8723;51.502;6.918;2022-11-18T06:04:24;6.88;;;3.30;;
17214;SDS011;8723;51.502;6.918;2022-11-18T06:06:53;6.50;;;3.40;;
17214;SDS011;8723;51.502;6.918;2022-11-18T06:09:23;7.80;;;3.85;;
17214;SDS011;8723;51.502;6.918;2022-11-18T06:11:53;7.70;;;3.80;;
17214;SDS011;8723;51.502;6.918;2022-11-18T06:14:23;6.65;;;3.50;;
17214;SDS011;8723;51.502;6.918;2022-11-18T06:16:54;5.82;;;3.67;;
17214;SDS011;8723;51.502;6.918;2022-11-18T06:19:22;9.43;;;4.00;;
17214;SDS011;8723;51.502;6.918;2022-11-18T06:21:49;6.50;;;4.10;;
17214;SDS011;8723;51.502;6.918;2022-11-18T06:24:16;7.25;;;3.83;;
17214;SDS011;8723;51.502;6.918;2022-11-18T06:26:45;7.47;;;3.50;;
17214;SDS011;8723;51.502;6.918;2022-11-18T06:29:13;7.15;;;3.80;;
17214;SDS011;8723;51.502;6.918;2022-11-18T06:31:40;5.45;;;4.10;;
17214;SDS011;8723;51.502;6.918;2022-11-18T06:34:07;5.30;;;4.00;;
17214;SDS011;8723;51.502;6.918;2022-11-18T06:36:34;6.60;;;4.10;;
17214;SDS011;8723;51.502;6.918;2022-11-18T06:39:02;5.80;;;3.95;;
17214;SDS011;8723;51.502;6.918;2022-11-18T06:41:29;8.20;;;4.10;;
17214;SDS011;8723;51.502;6.918;2022-11-18T06:43:58;8.05;;;4.13;;
17214;SDS011;8723;51.502;6.918;2022-11-18T06:46:24;7.55;;;4.05;;
17214;SDS011;8723;51.502;6.918;2022-11-18T06:49:09;6.22;;;3.80;;
17214;SDS011;8723;51.502;6.918;2022-11-18T06:51:36;8.57;;;4.80;;
17214;SDS011;8723;51.502;6.918;2022-11-18T06:54:04;7.28;;;4.63;;
17214;SDS011;8723;51.502;6.918;2022-11-18T06:56:31;7.93;;;4.20;;
17214;SDS011;8723;51.502;6.918;2022-11-18T06:58:59;8.18;;;4.40;;
17214;SDS011;8723;51.502;6.918;2022-11-18T07:01:27;7.38;;;4.38;;
17214;SDS011;8723;51.502;6.918;2022-11-18T07:03:56;6.25;;;4.22;;
17214;SDS011;8723;51.502;6.918;2022-11-18T07:06:24;8.32;;;4.78;;
17214;SDS011;8723;51.502;6.918;2022-11-18T07:08:51;7.40;;;4.60;;
17214;SDS011;8723;51.502;6.918;2022-11-18T07:11:19;7.63;;;4.63;;
17214;SDS011;8723;51.502;6.918;2022-11-18T07:13:47;4.95;;;3.95;;
17214;SDS011;8723;51.502;6.918;2022-11-18T07:16:16;5.85;;;4.20;;
17214;SDS011;8723;51.502;6.918;2022-11-18T07:18:44;6.43;;;4.18;;
17214;SDS011;8723;51.502;6.918;2022-11-18T07:21:12;6.87;;;3.90;;
17214;SDS011;8723;51.502;6.918;2022-11-18T07:23:39;6.75;;;4.05;;
17214;SDS011;8723;51.502;6.918;2022-11-18T07:26:07;12.52;;;5.68;;
17214;SDS011;8723;51.502;6.918;2022-11-18T07:28:34;8.48;;;4.00;;
17214;SDS011;8723;51.502;6.918;2022-11-18T07:31:01;6.80;;;3.67;;
17214;SDS011;8723;51.502;6.918;2022-11-18T07:33:30;4.85;;;3.65;;
17214;SDS011;8723;51.502;6.918;2022-11-18T07:36:01;8.30;;;4.47;;
17214;SDS011;8723;51.502;6.918;2022-11-18T07:38:29;6.75;;;4.30;;
17214;SDS011;8723;51.502;6.918;2022-11-18T07:41:01;5.88;;;3.95;;
17214;SDS011;8723;51.502;6.918;2022-11-18T07:43:29;8.18;;;3.97;;
17214;SDS011;8723;51.502;6.918;2022-11-18T07:45:56;7.63;;;3.65;;
17214;SDS011;8723;51.502;6.918;2022-11-18T07:48:23;6.53;;;3.60;;
17214;SDS011;8723;51.502;6.918;2022-11-18T07:50:51;6.72;;;4.30;;
17214;SDS011;8723;51.502;6.918;2022-11-18T07:53:18;6.85;;;4.28;;
17214;SDS011;8723;51.502;6.918;2022-11-18T07:55:45;8.38;;;3.85;;
17214;SDS011;8723;51.502;6.918;2022-11-18T07:58:12;6.90;;;4.05;;
17214;SDS011;8723;51.502;6.918;2022-11-18T08:00:40;7.03;;;4.20;;
17214;SDS011;8723;51.502;6.918;2022-11-18T08:03:07;9.17;;;4.57;;
17214;SDS011;8723;51.502;6.918;2022-11-18T08:05:34;6.95;;;4.10;;
17214;SDS011;8723;51.502;6.918;2022-11-18T08:08:02;7.20;;;4.03;;
17214;SDS011;8723;51.502;6.918;2022-11-18T08:10:29;8.98;;;4.75;;
17214;SDS011;8723;51.502;6.918;2022-11-18T08:12:57;5.05;;;4.20;;
17214;SDS011;8723;51.502;6.918;2022-11-18T08:15:24;5.97;;;4.20;;
17214;SDS011;8723;51.502;6.918;2022-11-18T08:17:52;7.57;;;4.55;;
17214;SDS011;8723;51.502;6.918;2022-11-18T08:20:19;5.33;;;4.30;;
17214;SDS011;8723;51.502;6.918;2022-11-18T08:22:51;5.40;;;4.50;;
17214;SDS011;8723;51.502;6.918;2022-11-18T08:25:19;7.88;;;5.10;;
17214;SDS011;8723;51.502;6.918;2022-11-18T08:27:46;7.73;;;5.67;;
17214;SDS011;8723;51.502;6.918;2022-11-18T08:30:13;6.53;;;5.00;;
17214;SDS011;8723;51.502;6.918;2022-11-18T08:32:40;5.18;;;4.00;;
17214;SDS011;8723;51.502;6.918;2022-11-18T08:35:08;6.47;;;4.95;;
17214;SDS011;8723;51.502;6.918;2022-11-18T08:37:35;5.60;;;4.15;;
17214;SDS011;8723;51.502;6.918;2022-11-18T08:40:02;7.90;;;5.28;;
17214;SDS011;8723;51.502;6.918;2022-11-18T08:42:31;7.63;;;4.63;;
17214;SDS011;8723;51.502;6.918;2022-11-18T08:44:58;8.93;;;4.90;;
17214;SDS011;8723;51.502;6.918;2022-11-18T08:47:26;9.45;;;5.18;;
17214;SDS011;8723;51.502;6.918;2022-11-18T08:49:53;6.80;;;5.03;;
17214;SDS011;8723;51.502;6.918;2022-11-18T08:52:20;6.88;;;5.10;;
17214;SDS011;8723;51.502;6.918;2022-11-18T08:54:47;7.97;;;5.13;;
17214;SDS011;8723;51.502;6.918;2022-11-18T08:57:14;6.70;;;4.82;;
17214;SDS011;8723;51.502;6.918;2022-11-18T08:59:42;7.13;;;5.18;;
17214;SDS011;8723;51.502;6.918;2022-11-18T09:02:12;7.72;;;5.30;;
17214;SDS011;8723;51.502;6.918;2022-11-18T09:04:39;6.63;;;4.97;;
17214;SDS011;8723;51.502;6.918;2022-11-18T09:07:06;8.43;;;4.93;;
17214;SDS011;8723;51.502;6.918;2022-11-18T09:09:33;6.63;;;5.10;;
17214;SDS011;8723;51.502;6.918;2022-11-18T09:12:01;8.35;;;5.00;;
17214;SDS011;8723;51.502;6.918;2022-11-18T09:14:29;6.47;;;4.30;;
17214;SDS011;8723;51.502;6.918;2022-11-18T09:16:57;6.85;;;4.20;;
17214;SDS011;8723;51.502;6.918;2022-11-18T09:19:25;8.20;;;5.20;;
17214;SDS011;8723;51.502;6.918;2022-11-18T09:21:52;5.38;;;4.45;;
17214;SDS011;8723;51.502;6.918;2022-11-18T09:24:19;6.13;;;4.50;;
17214;SDS011;8723;51.502;6.918;2022-11-18T09:26:46;6.90;;;4.63;;
17214;SDS011;8723;51.502;6.918;2022-11-18T09:29:13;6.25;;;4.55;;
17214;SDS011;8723;51.502;6.918;2022-11-18T09:31:41;5.93;;;4.18;;
17214;SDS011;8723;51.502;6.918;2022-11-18T09:34:09;6.07;;;4.03;;
17214;SDS011;8723;51.502;6.918;2022-11-18T09:36:36;6.67;;;4.80;;
17214;SDS011;8723;51.502;6.918;2022-11-18T09:39:03;7.20;;;5.00;;
17214;SDS011;8723;51.502;6.918;2022-11-18T09:41:35;8.35;;;4.80;;
17214;SDS011;8723;51.502;6.918;2022-11-18T09:44:08;8.27;;;5.00;;
17214;SDS011;8723;51.502;6.918;2022-11-18T09:46:43;6.38;;;4.55;;
17214;SDS011;8723;51.502;6.918;2022-11-18T09:49:18;7.47;;;4.70;;
17214;SDS011;8723;51.502;6.918;2022-11-18T09:51:47;8.77;;;4.93;;
17214;SDS011;8723;51.502;6.918;2022-11-18T09:54:16;5.75;;;4.10;;
17214;SDS011;8723;51.502;6.918;2022-11-18T09:56:45;6.68;;;4.13;;
17214;SDS011;8723;51.502;6.918;2022-11-18T09:59:13;7.43;;;5.10;;
17214;SDS011;8723;51.502;6.918;2022-11-18T10:01:41;7.50;;;4.50;;
17214;SDS011;8723;51.502;6.918;2022-11-18T10:04:11;8.65;;;5.35;;
17214;SDS011;8723;51.502;6.918;2022-11-18T10:06:41;7.22;;;4.68;;
17214;SDS011;8723;51.502;6.918;2022-11-18T10:14:40;8.47;;;4.60;;
17214;SDS011;8723;51.502;6.918;2022-11-18T10:17:11;7.80;;;4.90;;
17214;SDS011;8723;51.502;6.918;2022-11-18T10:19:46;7.45;;;4.88;;
17214;SDS011;8723;51.502;6.918;2022-11-18T10:22:18;6.13;;;4.60;;
17214;SDS011;8723;51.502;6.918;2022-11-18T10:24:48;10.80;;;5.17;;
17214;SDS011;8723;51.502;6.918;2022-11-18T10:27:16;9.88;;;5.30;;
17214;SDS011;8723;51.502;6.918;2022-11-18T10:29:43;7.85;;;5.25;;
17214;SDS011;8723;51.502;6.918;2022-11-18T10:32:12;7.95;;;5.07;;
17214;SDS011;8723;51.502;6.918;2022-11-18T10:34:45;7.93;;;4.68;;
17214;SDS011;8723;51.502;6.918;2022-11-18T10:37:22;9.45;;;5.30;;
17214;SDS011;8723;51.502;6.918;2022-11-18T10:39:50;8.82;;;4.43;;
17214;SDS011;8723;51.502;6.918;2022-11-18T10:42:19;8.10;;;5.65;;
17214;SDS011;8723;51.502;6.918;2022-11-18T10:44:49;9.05;;;5.05;;
17214;SDS011;8723;51.502;6.918;2022-11-18T10:47:23;6.78;;;4.60;;
17214;SDS011;8723;51.502;6.918;2022-11-18T10:49:51;6.50;;;4.47;;
17214;SDS011;8723;51.502;6.918;2022-11-18T10:52:18;9.13;;;5.30;;
17214;SDS011;8723;51.502;6.918;2022-11-18T10:54:47;7.30;;;5.13;;
17214;SDS011;8723;51.502;6.918;2022-11-18T10:57:30;8.38;;;5.68;;
17214;SDS011;8723;51.502;6.918;2022-11-18T11:00:00;10.48;;;5.88;;
17214;SDS011;8723;51.502;6.918;2022-11-18T11:02:28;12.33;;;6.20;;
17214;SDS011;8723;51.502;6.918;2022-11-18T11:04:56;12.10;;;6.18;;
17214;SDS011;8723;51.502;6.918;2022-11-18T11:07:25;12.88;;;6.78;;
17214;SDS011;8723;51.502;6.918;2022-11-18T11:10:00;10.77;;;6.85;;
17214;SDS011;8723;51.502;6.918;2022-11-18T11:12:28;10.77;;;6.30;;
17214;SDS011;8723;51.502;6.918;2022-11-18T11:14:57;11.33;;;7.50;;
17214;SDS011;8723;51.502;6.918;2022-11-18T11:17:26;9.93;;;8.68;;
17214;SDS011;8723;51.502;6.918;2022-11-18T11:19:56;10.00;;;7.53;;
17214;SDS011;8723;51.502;6.918;2022-11-18T11:22:24;11.88;;;9.07;;
17214;SDS011;8723;51.502;6.918;2022-11-18T11:24:51;11.27;;;7.55;;
17214;SDS011;8723;51.502;6.918;2022-11-18T11:27:26;10.70;;;8.30;;
17214;SDS011;8723;51.502;6.918;2022-11-18T11:30:01;11.47;;;7.60;;
17214;SDS011;8723;51.502;6.918;2022-11-18T11:32:31;10.43;;;7.53;;
17214;SDS011;8723;51.502;6.918;2022-11-18T11:35:00;9.55;;;7.07;;
17214;SDS011;8723;51.502;6.918;2022-11-18T11:37:34;8.13;;;6.68;;
17214;SDS011;8723;51.502;6.918;2022-11-18T11:40:09;11.07;;;7.38;;
17214;SDS011;8723;51.502;6.918;2022-11-18T11:42:44;7.80;;;5.45;;
17214;SDS011;8723;51.502;6.918;2022-11-18T11:45:17;7.82;;;5.75;;
17214;SDS011;8723;51.502;6.918;2022-11-18T11:47:49;7.60;;;6.37;;
17214;SDS011;8723;51.502;6.918;2022-11-18T11:50:22;10.05;;;6.97;;
17214;SDS011;8723;51.502;6.918;2022-11-18T11:52:57;10.45;;;6.88;;
17214;SDS011;8723;51.502;6.918;2022-11-18T11:55:29;6.28;;;4.80;;
17214;SDS011;8723;51.502;6.918;2022-11-18T11:58:13;8.45;;;5.75;;
17214;SDS011;8723;51.502;6.918;2022-11-18T12:00:43;8.88;;;6.78;;
17214;SDS011;8723;51.502;6.918;2022-11-18T12:03:16;8.73;;;5.97;;
17214;SDS011;8723;51.502;6.918;2022-11-18T12:05:46;4.03;;;3.33;;
17214;SDS011;8723;51.502;6.918;2022-11-18T12:08:13;7.90;;;4.68;;
17214;SDS011;8723;51.502;6.918;2022-11-18T12:10:43;7.20;;;4.22;;
17214;SDS011;8723;51.502;6.918;2022-11-18T12:13:23;5.75;;;3.80;;
17214;SDS011;8723;51.502;6.918;2022-11-18T12:15:57;8.52;;;5.35;;
17214;SDS011;8723;51.502;6.918;2022-11-18T12:18:29;8.40;;;5.30;;
17214;SDS011;8723;51.502;6.918;2022-11-18T12:20:59;8.45;;;4.88;;
17214;SDS011;8723;51.502;6.918;2022-11-18T12:23:26;8.68;;;4.65;;
17214;SDS011;8723;51.502;6.918;2022-11-18T12:26:04;6.70;;;4.47;;
17214;SDS011;8723;51.502;6.918;2022-11-18T12:28:33;10.50;;;4.40;;
17214;SDS011;8723;51.502;6.918;2022-11-18T12:33:47;8.27;;;4.03;;
17214;SDS011;8723;51.502;6.918;2022-11-18T12:36:23;8.10;;;4.93;;
17214;SDS011;8723;51.502;6.918;2022-11-18T12:38:50;14.98;;;11.63;;
17214;SDS011;8723;51.502;6.918;2022-11-18T12:44:18;7.38;;;5.88;;
17214;SDS011;8723;51.502;6.918;2022-11-18T12:46:49;8.32;;;4.18;;
17214;SDS011;8723;51.502;6.918;2022-11-18T12:52:02;8.25;;;3.55;;
17214;SDS011;8723;51.502;6.918;2022-11-18T12:54:31;6.23;;;3.40;;
17214;SDS011;8723;51.502;6.918;2022-11-18T12:57:00;7.88;;;3.70;;
17214;SDS011;8723;51.502;6.918;2022-11-18T12:59:30;6.45;;;3.53;;
17214;SDS011;8723;51.502;6.918;2022-11-18T13:02:01;6.38;;;3.72;;
17214;SDS011;8723;51.502;6.918;2022-11-18T13:04:28;8.23;;;3.92;;
17214;SDS011;8723;51.502;6.918;2022-11-18T13:06:55;6.80;;;3.90;;
17214;SDS011;8723;51.502;6.918;2022-11-18T13:09:24;7.53;;;3.50;;
17214;SDS011;8723;51.502;6.918;2022-11-18T13:11:52;7.10;;;3.78;;
17214;SDS011;8723;51.502;6.918;2022-11-18T13:14:22;9.38;;;4.90;;
17214;SDS011;8723;51.502;6.918;2022-11-18T13:17:29;7.18;;;4.65;;
17214;SDS011;8723;51.502;6.918;2022-11-18T13:20:18;8.88;;;4.03;;
17214;SDS011;8723;51.502;6.918;2022-11-18T13:22:48;6.88;;;3.50;;
17214;SDS011;8723;51.502;6.918;2022-11-18T13:25:32;5.20;;;2.85;;
17214;SDS011;8723;51.502;6.918;2022-11-18T13:28:01;6.33;;;3.10;;
17214;SDS011;8723;51.502;6.918;2022-11-18T13:30:29;5.30;;;3.22;;
17214;SDS011;8723;51.502;6.918;2022-11-18T13:32:58;4.63;;;2.92;;
17214;SDS011;8723;51.502;6.918;2022-11-18T13:35:25;7.05;;;3.00;;
17214;SDS011;8723;51.502;6.918;2022-11-18T13:37:54;5.95;;;3.08;;
17214;SDS011;8723;51.502;6.918;2022-11-18T13:40:22;8.35;;;3.00;;
17214;SDS011;8723;51.502;6.918;2022-11-18T13:42:50;3.80;;;2.50;;
17214;SDS011;8723;51.502;6.918;2022-11-18T13:45:17;7.75;;;3.40;;
17214;SDS011;8723;51.502;6.918;2022-11-18T13:47:45;5.55;;;3.67;;
17214;SDS011;8723;51.502;6.918;2022-11-18T13:50:16;6.38;;;3.92;;
17214;SDS011;8723;51.502;6.918;2022-11-18T13:52:48;6.50;;;3.72;;
17214;SDS011;8723;51.502;6.918;2022-11-18T13:55:19;7.93;;;4.23;;
17214;SDS011;8723;51.502;6.918;2022-11-18T13:57:47;7.30;;;4.45;;
17214;SDS011;8723;51.502;6.918;2022-11-18T14:00:24;6.15;;;3.90;;
17214;SDS011;8723;51.502;6.918;2022-11-18T14:02:53;5.75;;;3.65;;
17214;SDS011;8723;51.502;6.918;2022-11-18T14:05:22;6.05;;;3.40;;
17214;SDS011;8723;51.502;6.918;2022-11-18T14:08:01;5.03;;;3.00;;
17214;SDS011;8723;51.502;6.918;2022-11-18T14:10:29;6.20;;;3.40;;
17214;SDS011;8723;51.502;6.918;2022-11-18T14:12:57;7.15;;;3.40;;
17214;SDS011;8723;51.502;6.918;2022-11-18T14:15:32;7.05;;;3.00;;
17214;SDS011;8723;51.502;6.918;2022-11-18T14:18:00;5.63;;;2.95;;
17214;SDS011;8723;51.502;6.918;2022-11-18T14:20:29;6.22;;;3.60;;
17214;SDS011;8723;51.502;6.918;2022-11-18T14:22:57;7.40;;;3.35;;
17214;SDS011;8723;51.502;6.918;2022-11-18T14:25:26;6.28;;;3.10;;
17214;SDS011;8723;51.502;6.918;2022-11-18T14:27:53;6.00;;;2.73;;
17214;SDS011;8723;51.502;6.918;2022-11-18T14:33:10;6.32;;;2.83;;
17214;SDS011;8723;51.502;6.918;2022-11-18T14:35:39;6.60;;;3.10;;
17214;SDS011;8723;51.502;6.918;2022-11-18T14:38:12;7.17;;;3.40;;
17214;SDS011;8723;51.502;6.918;2022-11-18T14:40:40;6.80;;;3.20;;
17214;SDS011;8723;51.502;6.918;2022-11-18T14:43:08;5.85;;;3.00;;
17214;SDS011;8723;51.502;6.918;2022-11-18T14:45:35;5.10;;;3.03;;
17214;SDS011;8723;51.502;6.918;2022-11-18T14:48:03;5.47;;;3.10;;
17214;SDS011;8723;51.502;6.918;2022-11-18T14:50:30;6.95;;;3.20;;
17214;SDS011;8723;51.502;6.918;2022-11-18T14:52:58;5.55;;;3.10;;
17214;SDS011;8723;51.502;6.918;2022-11-18T14:55:25;8.43;;;3.45;;
17214;SDS011;8723;51.502;6.918;2022-11-18T14:57:53;5.00;;;3.08;;
17214;SDS011;8723;51.502;6.918;2022-11-18T15:00:20;5.40;;;3.08;;
17214;SDS011;8723;51.502;6.918;2022-11-18T15:02:49;5.70;;;3.38;;
17214;SDS011;8723;51.502;6.918;2022-11-18T15:05:16;7.53;;;3.50;;
17214;SDS011;8723;51.502;6.918;2022-11-18T15:07:43;9.10;;;4.13;;
17214;SDS011;8723;51.502;6.918;2022-11-18T15:10:14;8.85;;;6.20;;
17214;SDS011;8723;51.502;6.918;2022-11-18T15:12:41;6.85;;;3.95;;
17214;SDS011;8723;51.502;6.918;2022-11-18T15:15:08;8.35;;;4.07;;
17214;SDS011;8723;51.502;6.918;2022-11-18T15:17:36;7.22;;;5.50;;
17214;SDS011;8723;51.502;6.918;2022-11-18T15:20:03;7.63;;;4.95;;
17214;SDS011;8723;51.502;6.918;2022-11-18T15:22:31;11.02;;;4.95;;
17214;SDS011;8723;51.502;6.918;2022-11-18T15:24:58;10.85;;;5.60;;
17214;SDS011;8723;51.502;6.918;2022-11-18T15:27:26;9.20;;;5.82;;
17214;SDS011;8723;51.502;6.918;2022-11-18T15:29:54;10.30;;;5.25;;
17214;SDS011;8723;51.502;6.918;2022-11-18T15:32:21;8.23;;;5.32;;